หมวดสินค้า >> WORM GEAR SPEED REDUCER >> WORM GEAR SPEED REDUCER >> PR >>
ชื่อสินค้า
PR
รหัสสินค้า
PR
PR
  • เกียร์ทด ความเร็วรอบจากต้นกำลัง
  • มีขนาดตั้งแต่ PR-9 [ 40 ] - PR-50 [ 200 ]
  • อัตราทด 1 : 5 - 1 : 60
  • มีแบบรุ่นขาหล่อติด และแบบถอดขาได้
  • เหมาะสำหรับงานอุตสาหกรรมเบา และหนักทุกชนิด

MODEL HP RPM FRAME RATIO PRICE QUALITY
PR9(40) 1:5 1,260
PR9(40) 1:10 1,260
PR9(40) 1:15 1,260
PR9(40) 1:20 1,260
PR9(40) 1:30 1,260
PR9(40) 1:40 1,260
PR9(40) 1:50 1,260
PR9(40) 1:60 1,260
PR12(50) 1:5 1,350
PR12(50) 1:10 1,350
PR12(50) 1:15 1,350
PR12(50) 1:20 1,350
PR12(50) 1:30 1,350
PR12(50) 1:40 1,350
PR12(50) 1:50 1,350
PR12(50) 1:60 1,350
PR15(60) 1:5 1,620
PR15(60) 1:10 1,620
PR15(60) 1:15 1,620
PR15(60) 1:20 1,620
PR15(60) 1:30 1,620
PR15(60) 1:40 1,620
PR15(60) 1:50 1,620
PR15(60) 1:60 1,620
PR18(70) 1:5 2,160
PR18(70) 1:10 2,160
PR18(70) 1:15 2,160
PR18(70) 1:20 2,160
PR18(70) 1:30 2,160
PR18(70) 1:40 2,160
PR18(70) 1:50 2,160
PR18(70) 1:60 2,160
PR22(80) 1:5 2,925
PR22(80) 1:10 2,925
PR22(80) 1:15 2,925
PR22(80) 1:20 2,925
PR22(80) 1:30 2,925
PR22(80) 1:40 2,925
PR22(80) 1:50 2,925
PR22(80) 1:60 2,925
PR25(100) 1:5 4,410
PR25(100) 1:10 4,410
PR25(100) 1:15 4,410
PR25(100) 1:20 4,410
PR25(100) 1:30 4,410
PR25(100) 1:40 4,410
PR25(100) 1:50 4,410
PR25(100) 1:60 4,410
PR30(120) 1:5 7,200
PR30(120) 1:10 7,200
PR30(120) 1:15 7,200
PR30(120) 1:20 7,200
PR30(120) 1:30 7,200
PR30(120) 1:40 7,200
PR30(120) 1:50 7,200
PR30(120) 1:60 7,200
PR35(135) 1:5 9,675
PR35(135) 1:10 9,675
PR35(135) 1:15 9,675
PR35(135) 1:20 9,675
PR35(135) 1:30 9,675
PR35(135) 1:40 9,675
PR35(135) 1:50 9,675
PR35(135) 1:60 9,675
PR40(155) 1:5 13,950
PR40(155) 1:10 13,950
PR40(155) 1:15 13,950
PR40(155) 1:20 13,950
PR40(155) 1:30 13,950
PR40(155) 1:40 13,950
PR40(155) 1:50 13,950
PR40(155) 1:60 13,950
PR45(175) 1:5 17,100
PR45(175) 1:10 17,100
PR45(175) 1:15 17,100
PR45(175) 1:20 17,100
PR45(175) 1:30 17,100
PR45(175) 1:40 17,100
PR45(175) 1:50 17,100
PR45(175) 1:60 17,100
PR50(200) 1:5 31,500
PR50(200) 1:10 31,500
PR50(200) 1:15 31,500
PR50(200) 1:20 31,500
PR50(200) 1:30 31,500
PR50(200) 1:40 31,500
PR50(200) 1:50 31,500
PR50(200) 1:60 31,500
PR60(250) 1:5 51,750
PR60(250) 1:10 51,750
PR60(250) 1:15 51,750
PR60(250) 1:20 51,750
PR60(250) 1:30 51,750
PR60(250) 1:40 51,750
PR60(250) 1:50 51,750
PR60(250) 1:60 51,750
 
 
 
บริษัท เจริญเมืองแมชชินเนอรี่ จำกัด
164/1 อาคารเกียงไกร ถนนวิสุทธิกษัตริย์ แขวงบ้านพานถม เขตพระนคร กรุงเทพฯ 10200

TEL : 02-282-5331 (Auto 30 Lines), 02-280-8431-5
FAX : 02-280-8033-5
Hotline : 083-888-9888 Line ID : @Charoenmuang
Email : info@crm.co.th
Copyright © 2017 CHAROEN MUANG MACHINERY. all rights reserved.